Anzoras — EAZC — position and weather

sailwx.info

Track history (hours):
 
Tides and Currents Weather Stations Pressure Air Temp Water Temp Dewpoint Dewpoint Depression Visibility Wind Speed Wind Dir Waves Ship Positions

Anzoras

Last reported at 2015-May-23 09:13 UTC. Time now 2015-May-24 13:17 UTC.
Position N 43°42' W 005°10'.

Length 100 m; draft 4.3 m.

Type: Cargo ship. MMSI: 224376000.

Date/timePositionNaut miles runAvg speedWind from/ knotsBaromVisibWave heightAir tempDewpointWater temp
2015-May-23 09:13N 43°42' W 005°10'711.0
2015-May-23 08:33N 43°43' W 005°20'2711.0
2015-May-23 06:05N 43°45' W 005°58'322 6.9
2015-May-21 07:12N 39°14' W 009°50'5 7.9
2015-May-21 06:33N 39°09' W 009°50'8 7.7
2015-May-21 05:34N 39°01' W 009°50'8 7.7
2015-May-21 04:33N 38°53' W 009°50'8 7.6
2015-May-21 03:33N 38°46' W 009°51'9 6.9
2015-May-21 02:15N 38°37' W 009°49'5 6.7
2015-May-21 01:33N 38°32' W 009°47'7 6.6
2015-May-21 00:26N 38°25' W 009°45'38 6.2
2015-May-20 18:19N 37°48' W 009°35'11 6.0
2015-May-20 16:33N 37°38' W 009°32'8 6.5
2015-May-20 15:20N 37°30' W 009°30'5 6.8
2015-May-20 14:33N 37°25' W 009°28'208 8.3
2015-May-19 13:26N 35°59' W 005°31'7 7.7
2015-May-19 12:29N 36°02' W 005°23'9 9.4
2015-May-19 11:32N 36°06' W 005°14'11610.5
2015-May-19 00:33N 36°36' W 002°55'1111.4
2015-May-18 23:34N 36°36' W 002°40'9210.2
2015-May-18 14:32N 37°18' W 000°58'1212.1
2015-May-18 13:33N 37°26' W 000°46'1211.8
2015-May-18 12:33N 37°33' W 000°35'1211.6
2015-May-18 11:33N 37°43' W 000°27'22911.2
2015-May-17 15:04N 40°49' E 002°26'510.7
2015-May-17 14:33N 40°53' E 002°30'1110.7
2015-May-17 13:33N 41°02' E 002°39'1110.9
2015-May-17 12:33N 41°11' E 002°47'2411.7
2015-May-17 10:32N 41°30' E 003°06'131 9.1
2015-May-16 20:12N 43°16' E 004°51'710.4
2015-May-16 19:33N 43°20' E 004°58'5 4.6
2015-May-16 18:30N 43°24' E 005°01'0 0.0
2015-May-16 17:30N 43°24' E 005°01'0 0.0
2015-May-16 16:30N 43°24' E 005°01'0 0.0
2015-May-16 15:33N 43°24' E 005°01'0 0.0
2015-May-16 14:30N 43°24' E 005°01'0 0.0
2015-May-16 13:12N 43°24' E 005°01'0 0.0
2015-May-16 12:30N 43°24' E 005°01'0 0.0
2015-May-16 11:30N 43°24' E 005°01'0 0.0
2015-May-16 10:30N 43°24' E 005°01'0 0.0
2015-May-16 09:24N 43°24' E 005°01'0 0.0
2015-May-16 08:24N 43°24' E 005°01'0 0.0
2015-May-16 07:30N 43°24' E 005°01'0 0.0
2015-May-16 05:33N 43°24' E 005°01'0 0.0
2015-May-16 04:33N 43°24' E 005°01'0 0.0
2015-May-16 03:30N 43°24' E 005°01'0 0.0
2015-May-16 02:30N 43°24' E 005°01'0 0.0
2015-May-16 01:30N 43°24' E 005°01'0 0.0
2015-May-16 00:30N 43°24' E 005°01'0 0.0
2015-May-15 23:24N 43°24' E 005°01'0 0.0
2015-May-15 22:30N 43°24' E 005°01'0 0.0
2015-May-15 21:30N 43°24' E 005°01'0 0.0
2015-May-15 20:24N 43°24' E 005°01'0 0.0
2015-May-15 19:33N 43°24' E 005°01'0 0.0
2015-May-15 18:30N 43°24' E 005°01'0 0.0
2015-May-15 17:30N 43°24' E 005°01'0 0.0
2015-May-15 16:24N 43°24' E 005°01'0 0.0
2015-May-15 15:18N 43°24' E 005°01'0 0.0
2015-May-15 14:30N 43°24' E 005°01'0 0.0
2015-May-15 13:24N 43°24' E 005°01'0 0.0
2015-May-15 12:30N 43°24' E 005°01'0 0.0
2015-May-15 11:24N 43°24' E 005°01'0 0.0
2015-May-15 10:30N 43°24' E 005°01'0 0.0
2015-May-15 09:24N 43°24' E 005°01'0 0.0
2015-May-15 08:21N 43°24' E 005°01'0 0.0
2015-May-15 07:30N 43°24' E 005°01'0 0.0
2015-May-15 06:30N 43°24' E 005°01'0 0.0
2015-May-15 05:33N 43°24' E 005°01'0 0.0
2015-May-15 04:24N 43°24' E 005°01'0 0.0
2015-May-15 03:12N 43°24' E 005°01'0 0.0
2015-May-15 02:24N 43°24' E 005°01'0 0.0
2015-May-15 01:30N 43°24' E 005°01'0 0.0
2015-May-15 00:30N 43°24' E 005°01'0 0.0
2015-May-14 23:30N 43°24' E 005°01'0 0.0
2015-May-14 22:30N 43°24' E 005°01'0 0.0
2015-May-14 21:30N 43°24' E 005°01'0 0.0
2015-May-14 20:30N 43°24' E 005°01'0 0.0
2015-May-14 19:30N 43°24' E 005°01'0 0.0
2015-May-14 18:33N 43°24' E 005°01'0 0.0
2015-May-14 17:30N 43°24' E 005°01'0 0.0
2015-May-14 16:33N 43°24' E 005°01'0 0.0
2015-May-14 15:24N 43°24' E 005°01'0 0.0
2015-May-14 14:33N 43°24' E 005°01'0 0.0
2015-May-14 13:30N 43°24' E 005°01'0 0.0
2015-May-14 12:18N 43°24' E 005°01'0 0.0
2015-May-14 11:30N 43°24' E 005°01'0 0.0
2015-May-14 10:30N 43°24' E 005°01'0 0.0
2015-May-14 09:33N 43°24' E 005°01'0 0.0
2015-May-14 08:30N 43°24' E 005°01'0 0.0
2015-May-14 07:30N 43°24' E 005°01'0 0.0
2015-May-14 06:30N 43°24' E 005°01'0 0.0
2015-May-14 05:33N 43°24' E 005°01'0 0.0
2015-May-14 04:30N 43°24' E 005°01'0 0.0
2015-May-14 03:33N 43°24' E 005°01'0 0.0
2015-May-14 02:30N 43°24' E 005°01'0 0.0
2015-May-14 01:30N 43°24' E 005°01'0 0.0
2015-May-14 00:30N 43°24' E 005°01'0 0.0
2015-May-13 23:30N 43°24' E 005°01'0 0.0
2015-May-13 22:24N 43°24' E 005°01'0 0.0
2015-May-13 21:30N 43°24' E 005°01'0 0.0
2015-May-13 20:33N 43°24' E 005°01'0 0.0
2015-May-13 19:33N 43°24' E 005°01'0 0.0
2015-May-13 18:33N 43°24' E 005°01'0 0.0
2015-May-13 17:30N 43°24' E 005°01'0 0.0
2015-May-13 16:30N 43°24' E 005°01'0 0.0
2015-May-13 15:30N 43°24' E 005°01'0 0.0
2015-May-13 14:33N 43°24' E 005°01'0 0.0
2015-May-13 13:30N 43°24' E 005°01'0 0.0
2015-May-13 12:30N 43°24' E 005°01'0 0.0
2015-May-13 11:30N 43°24' E 005°01'0 0.0
2015-May-13 10:30N 43°24' E 005°01'0 0.0
2015-May-13 09:33N 43°24' E 005°01'  
Track history (hours):
 
Tides and Currents Weather Stations Pressure Air Temp Water Temp Dewpoint Dewpoint Depression Visibility Wind Speed Wind Dir Waves Ship Positions

Anzoras

Last reported at 2015-May-23 09:13 UTC. Time now 2015-May-24 13:17 UTC.
Position N 43°42' W 005°10'.

Length 100 m; draft 4.3 m.

Type: Cargo ship. MMSI: 224376000.

Date/timePositionNaut miles runAvg speedWind from/ knotsBaromVisibWave heightAir tempDewpointWater temp
2015-May-23 09:13N 43°42' W 005°10'711.0
2015-May-23 08:33N 43°43' W 005°20'2711.0
2015-May-23 06:05N 43°45' W 005°58'322 6.9
2015-May-21 07:12N 39°14' W 009°50'5 7.9
2015-May-21 06:33N 39°09' W 009°50'8 7.7
2015-May-21 05:34N 39°01' W 009°50'8 7.7
2015-May-21 04:33N 38°53' W 009°50'8 7.6
2015-May-21 03:33N 38°46' W 009°51'9 6.9
2015-May-21 02:15N 38°37' W 009°49'5 6.7
2015-May-21 01:33N 38°32' W 009°47'7 6.6
2015-May-21 00:26N 38°25' W 009°45'38 6.2
2015-May-20 18:19N 37°48' W 009°35'11 6.0
2015-May-20 16:33N 37°38' W 009°32'8 6.5
2015-May-20 15:20N 37°30' W 009°30'5 6.8
2015-May-20 14:33N 37°25' W 009°28'208 8.3
2015-May-19 13:26N 35°59' W 005°31'7 7.7
2015-May-19 12:29N 36°02' W 005°23'9 9.4
2015-May-19 11:32N 36°06' W 005°14'11610.5
2015-May-19 00:33N 36°36' W 002°55'1111.4
2015-May-18 23:34N 36°36' W 002°40'9210.2
2015-May-18 14:32N 37°18' W 000°58'1212.1
2015-May-18 13:33N 37°26' W 000°46'1211.8
2015-May-18 12:33N 37°33' W 000°35'1211.6
2015-May-18 11:33N 37°43' W 000°27'22911.2
2015-May-17 15:04N 40°49' E 002°26'510.7
2015-May-17 14:33N 40°53' E 002°30'1110.7
2015-May-17 13:33N 41°02' E 002°39'1110.9
2015-May-17 12:33N 41°11' E 002°47'2411.7
2015-May-17 10:32N 41°30' E 003°06'131 9.1
2015-May-16 20:12N 43°16' E 004°51'710.4
2015-May-16 19:33N 43°20' E 004°58'5 4.6
2015-May-16 18:30N 43°24' E 005°01'0 0.0
2015-May-16 17:30N 43°24' E 005°01'0 0.0
2015-May-16 16:30N 43°24' E 005°01'0 0.0
2015-May-16 15:33N 43°24' E 005°01'0 0.0
2015-May-16 14:30N 43°24' E 005°01'0 0.0
2015-May-16 13:12N 43°24' E 005°01'0 0.0
2015-May-16 12:30N 43°24' E 005°01'0 0.0
2015-May-16 11:30N 43°24' E 005°01'0 0.0
2015-May-16 10:30N 43°24' E 005°01'0 0.0
2015-May-16 09:24N 43°24' E 005°01'0 0.0
2015-May-16 08:24N 43°24' E 005°01'0 0.0
2015-May-16 07:30N 43°24' E 005°01'0 0.0
2015-May-16 05:33N 43°24' E 005°01'0 0.0
2015-May-16 04:33N 43°24' E 005°01'0 0.0
2015-May-16 03:30N 43°24' E 005°01'0 0.0
2015-May-16 02:30N 43°24' E 005°01'0 0.0
2015-May-16 01:30N 43°24' E 005°01'0 0.0
2015-May-16 00:30N 43°24' E 005°01'0 0.0
2015-May-15 23:24N 43°24' E 005°01'0 0.0
2015-May-15 22:30N 43°24' E 005°01'0 0.0
2015-May-15 21:30N 43°24' E 005°01'0 0.0
2015-May-15 20:24N 43°24' E 005°01'0 0.0
2015-May-15 19:33N 43°24' E 005°01'0 0.0
2015-May-15 18:30N 43°24' E 005°01'0 0.0
2015-May-15 17:30N 43°24' E 005°01'0 0.0
2015-May-15 16:24N 43°24' E 005°01'0 0.0
2015-May-15 15:18N 43°24' E 005°01'0 0.0
2015-May-15 14:30N 43°24' E 005°01'0 0.0
2015-May-15 13:24N 43°24' E 005°01'0 0.0
2015-May-15 12:30N 43°24' E 005°01'0 0.0
2015-May-15 11:24N 43°24' E 005°01'0 0.0
2015-May-15 10:30N 43°24' E 005°01'0 0.0
2015-May-15 09:24N 43°24' E 005°01'0 0.0
2015-May-15 08:21N 43°24' E 005°01'0 0.0
2015-May-15 07:30N 43°24' E 005°01'0 0.0
2015-May-15 06:30N 43°24' E 005°01'0 0.0
2015-May-15 05:33N 43°24' E 005°01'0 0.0
2015-May-15 04:24N 43°24' E 005°01'0 0.0
2015-May-15 03:12N 43°24' E 005°01'0 0.0
2015-May-15 02:24N 43°24' E 005°01'0 0.0
2015-May-15 01:30N 43°24' E 005°01'0 0.0
2015-May-15 00:30N 43°24' E 005°01'0 0.0
2015-May-14 23:30N 43°24' E 005°01'0 0.0
2015-May-14 22:30N 43°24' E 005°01'0 0.0
2015-May-14 21:30N 43°24' E 005°01'0 0.0
2015-May-14 20:30N 43°24' E 005°01'0 0.0
2015-May-14 19:30N 43°24' E 005°01'0 0.0
2015-May-14 18:33N 43°24' E 005°01'0 0.0
2015-May-14 17:30N 43°24' E 005°01'0 0.0
2015-May-14 16:33N 43°24' E 005°01'0 0.0
2015-May-14 15:24N 43°24' E 005°01'0 0.0
2015-May-14 14:33N 43°24' E 005°01'0 0.0
2015-May-14 13:30N 43°24' E 005°01'0 0.0
2015-May-14 12:18N 43°24' E 005°01'0 0.0
2015-May-14 11:30N 43°24' E 005°01'0 0.0
2015-May-14 10:30N 43°24' E 005°01'0 0.0
2015-May-14 09:33N 43°24' E 005°01'0 0.0
2015-May-14 08:30N 43°24' E 005°01'0 0.0
2015-May-14 07:30N 43°24' E 005°01'0 0.0
2015-May-14 06:30N 43°24' E 005°01'0 0.0
2015-May-14 05:33N 43°24' E 005°01'0 0.0
2015-May-14 04:30N 43°24' E 005°01'0 0.0
2015-May-14 03:33N 43°24' E 005°01'0 0.0
2015-May-14 02:30N 43°24' E 005°01'0 0.0
2015-May-14 01:30N 43°24' E 005°01'0 0.0
2015-May-14 00:30N 43°24' E 005°01'0 0.0
2015-May-13 23:30N 43°24' E 005°01'0 0.0
2015-May-13 22:24N 43°24' E 005°01'0 0.0
2015-May-13 21:30N 43°24' E 005°01'0 0.0
2015-May-13 20:33N 43°24' E 005°01'0 0.0
2015-May-13 19:33N 43°24' E 005°01'0 0.0
2015-May-13 18:33N 43°24' E 005°01'0 0.0
2015-May-13 17:30N 43°24' E 005°01'0 0.0
2015-May-13 16:30N 43°24' E 005°01'0 0.0
2015-May-13 15:30N 43°24' E 005°01'0 0.0
2015-May-13 14:33N 43°24' E 005°01'0 0.0
2015-May-13 13:30N 43°24' E 005°01'0 0.0
2015-May-13 12:30N 43°24' E 005°01'0 0.0
2015-May-13 11:30N 43°24' E 005°01'0 0.0
2015-May-13 10:30N 43°24' E 005°01'0 0.0
2015-May-13 09:33N 43°24' E 005°01'  

Dump ship's entire track history